sensor_id;sensor_type;location;lat;lon;timestamp;pressure;altitude;pressure_sealevel;temperature;humidity
25650;BME280;13505;45.196;5.696;2023-03-14T05:01:45;98195.31;;;11.47;89.84
25650;BME280;13505;45.196;5.696;2023-03-14T05:06:36;98193.88;;;11.14;91.18
25650;BME280;13505;45.196;5.696;2023-03-14T05:11:26;98195.66;;;11.28;89.59
25650;BME280;13505;45.196;5.696;2023-03-14T05:16:17;98173.81;;;11.66;88.51
25650;BME280;13505;45.196;5.696;2023-03-14T05:21:07;98180.22;;;11.62;91.02
25650;BME280;13505;45.196;5.696;2023-03-14T05:25:57;98180.91;;;11.79;90.14
25650;BME280;13505;45.196;5.696;2023-03-14T05:30:48;98194.47;;;11.87;89.29
25650;BME280;13505;45.196;5.696;2023-03-14T05:35:38;98180.31;;;11.88;87.74
25650;BME280;13505;45.196;5.696;2023-03-14T05:40:29;98168.22;;;11.84;90.76
25650;BME280;13505;45.196;5.696;2023-03-14T05:45:19;98187.97;;;11.78;88.92
25650;BME280;13505;45.196;5.696;2023-03-14T05:50:10;98195.81;;;11.80;89.70
25650;BME280;13505;45.196;5.696;2023-03-14T05:55:01;98201.19;;;11.78;89.78
25650;BME280;13505;45.196;5.696;2023-03-14T05:59:51;98192.84;;;11.71;91.10
25650;BME280;13505;45.196;5.696;2023-03-14T06:04:41;98194.00;;;11.67;95.66
25650;BME280;13505;45.196;5.696;2023-03-14T06:09:32;98199.28;;;11.67;94.50
25650;BME280;13505;45.196;5.696;2023-03-14T06:14:22;98202.44;;;11.72;94.04
25650;BME280;13505;45.196;5.696;2023-03-14T06:19:12;98198.13;;;11.71;93.55
25650;BME280;13505;45.196;5.696;2023-03-14T06:24:03;98210.78;;;11.66;92.80
25650;BME280;13505;45.196;5.696;2023-03-14T06:28:54;98206.22;;;11.55;95.10
25650;BME280;13505;45.196;5.696;2023-03-14T06:33:44;98210.22;;;11.61;93.58
25650;BME280;13505;45.196;5.696;2023-03-14T06:38:35;98224.41;;;11.60;92.27
25650;BME280;13505;45.196;5.696;2023-03-14T06:43:25;98215.53;;;11.61;90.92
25650;BME280;13505;45.196;5.696;2023-03-14T06:48:15;98222.75;;;11.44;88.52
25650;BME280;13505;45.196;5.696;2023-03-14T06:53:06;98222.31;;;11.38;84.82
25650;BME280;13505;45.196;5.696;2023-03-14T06:57:56;98222.84;;;11.43;85.58
25650;BME280;13505;45.196;5.696;2023-03-14T07:02:46;98229.16;;;11.95;86.93
25650;BME280;13505;45.196;5.696;2023-03-14T07:07:37;98238.13;;;11.93;84.26
25650;BME280;13505;45.196;5.696;2023-03-14T07:12:27;98242.84;;;11.87;83.83
25650;BME280;13505;45.196;5.696;2023-03-14T07:17:17;98251.59;;;12.03;85.61
25650;BME280;13505;45.196;5.696;2023-03-14T07:22:08;98259.97;;;11.82;84.50
25650;BME280;13505;45.196;5.696;2023-03-14T07:26:58;98273.03;;;11.70;87.32
25650;BME280;13505;45.196;5.696;2023-03-14T07:31:49;98282.13;;;11.66;88.24
25650;BME280;13505;45.196;5.696;2023-03-14T07:36:39;98284.97;;;11.63;89.30
25650;BME280;13505;45.196;5.696;2023-03-14T07:41:30;98286.75;;;11.63;89.92
25650;BME280;13505;45.196;5.696;2023-03-14T07:46:20;98296.00;;;11.55;91.55
25650;BME280;13505;45.196;5.696;2023-03-14T07:51:11;98308.38;;;11.55;92.50
25650;BME280;13505;45.196;5.696;2023-03-14T07:56:01;98319.47;;;11.60;93.70
25650;BME280;13505;45.196;5.696;2023-03-14T08:00:52;98325.03;;;11.55;93.31
25650;BME280;13505;45.196;5.696;2023-03-14T08:05:43;98329.41;;;11.42;91.12
25650;BME280;13505;45.196;5.696;2023-03-14T08:10:33;98338.75;;;11.48;90.62
25650;BME280;13505;45.196;5.696;2023-03-14T08:15:24;98346.56;;;11.49;91.20
25650;BME280;13505;45.196;5.696;2023-03-14T08:20:15;98368.00;;;11.44;92.88
25650;BME280;13505;45.196;5.696;2023-03-14T08:25:06;98367.41;;;11.39;94.17
25650;BME280;13505;45.196;5.696;2023-03-14T08:29:56;98372.81;;;11.38;94.08
25650;BME280;13505;45.196;5.696;2023-03-14T08:34:47;98373.91;;;11.34;94.44
25650;BME280;13505;45.196;5.696;2023-03-14T08:39:37;98398.06;;;11.42;94.89
25650;BME280;13505;45.196;5.696;2023-03-14T08:44:27;98398.81;;;11.44;95.25
25650;BME280;13505;45.196;5.696;2023-03-14T08:49:18;98408.44;;;11.45;94.95
25650;BME280;13505;45.196;5.696;2023-03-14T08:54:10;98418.25;;;11.43;95.29
25650;BME280;13505;45.196;5.696;2023-03-14T08:59:00;98424.38;;;11.43;94.78
25650;BME280;13505;45.196;5.696;2023-03-14T09:03:51;98429.75;;;11.42;94.99
25650;BME280;13505;45.196;5.696;2023-03-14T09:08:41;98446.63;;;11.39;93.78
25650;BME280;13505;45.196;5.696;2023-03-14T09:13:31;98452.84;;;11.38;93.59
25650;BME280;13505;45.196;5.696;2023-03-14T09:18:22;98466.16;;;11.37;94.37
25650;BME280;13505;45.196;5.696;2023-03-14T09:23:14;98474.63;;;11.42;94.72
25650;BME280;13505;45.196;5.696;2023-03-14T09:28:04;98501.13;;;11.40;95.33
25650;BME280;13505;45.196;5.696;2023-03-14T09:32:54;98525.84;;;11.39;95.44
25650;BME280;13505;45.196;5.696;2023-03-14T09:37:45;98544.59;;;11.35;94.86
25650;BME280;13505;45.196;5.696;2023-03-14T09:42:37;98557.72;;;11.36;94.23
25650;BME280;13505;45.196;5.696;2023-03-14T09:47:29;98568.34;;;11.35;94.37
25650;BME280;13505;45.196;5.696;2023-03-14T09:52:35;98579.09;;;11.31;95.73
25650;BME280;13505;45.196;5.696;2023-03-14T09:57:27;98597.41;;;11.35;95.18
25650;BME280;13505;45.196;5.696;2023-03-14T10:02:23;98607.59;;;11.41;95.35
25650;BME280;13505;45.196;5.696;2023-03-14T10:07:16;98616.66;;;11.37;95.52
25650;BME280;13505;45.196;5.696;2023-03-14T10:12:09;98618.25;;;11.39;95.78
25650;BME280;13505;45.196;5.696;2023-03-14T10:17:09;98619.69;;;11.45;97.04
25650;BME280;13505;45.196;5.696;2023-03-14T10:22:01;98631.78;;;11.49;97.23
25650;BME280;13505;45.196;5.696;2023-03-14T10:26:58;98652.81;;;11.51;96.76
25650;BME280;13505;45.196;5.696;2023-03-14T10:31:58;98670.63;;;11.47;95.95
25650;BME280;13505;45.196;5.696;2023-03-14T10:36:56;98687.16;;;11.35;96.13
25650;BME280;13505;45.196;5.696;2023-03-14T10:42:19;98699.16;;;11.40;94.00
25650;BME280;13505;45.196;5.696;2023-03-14T10:47:19;98712.06;;;11.30;94.51
25650;BME280;13505;45.196;5.696;2023-03-14T10:52:21;98716.22;;;11.35;93.68
25650;BME280;13505;45.196;5.696;2023-03-14T10:57:12;98718.72;;;11.22;95.08
25650;BME280;13505;45.196;5.696;2023-03-14T11:07:21;98719.47;;;11.70;88.63
25650;BME280;13505;45.196;5.696;2023-03-14T11:23:21;98741.25;;;12.21;80.22
25650;BME280;13505;45.196;5.696;2023-03-14T11:28:23;98742.72;;;12.41;75.50
25650;BME280;13505;45.196;5.696;2023-03-14T11:33:21;98729.84;;;12.78;76.46
25650;BME280;13505;45.196;5.696;2023-03-14T11:43:28;98734.66;;;13.01;69.94
25650;BME280;13505;45.196;5.696;2023-03-14T12:04:53;98732.31;;;13.93;63.88
25650;BME280;13505;45.196;5.696;2023-03-14T12:09:45;98723.53;;;14.05;63.47
25650;BME280;13505;45.196;5.696;2023-03-14T12:14:44;98739.56;;;14.43;61.67
25650;BME280;13505;45.196;5.696;2023-03-14T12:19:39;98765.13;;;14.18;61.83
25650;BME280;13505;45.196;5.696;2023-03-14T12:24:35;98755.25;;;12.95;60.11
25650;BME280;13505;45.196;5.696;2023-03-14T12:29:27;98749.84;;;13.68;60.27
25650;BME280;13505;45.196;5.696;2023-03-14T12:39:16;98737.88;;;14.42;59.44
25650;BME280;13505;45.196;5.696;2023-03-14T12:49:19;98745.75;;;13.77;52.95
25650;BME280;13505;45.196;5.696;2023-03-14T12:59:39;98733.63;;;14.65;53.15
25650;BME280;13505;45.196;5.696;2023-03-14T13:04:48;98730.13;;;15.03;49.77
25650;BME280;13505;45.196;5.696;2023-03-14T13:09:55;98722.81;;;14.42;48.43
25650;BME280;13505;45.196;5.696;2023-03-14T13:14:50;98707.59;;;14.70;53.11
25650;BME280;13505;45.196;5.696;2023-03-14T13:19:43;98714.31;;;14.89;49.15
25650;BME280;13505;45.196;5.696;2023-03-14T13:24:34;98709.97;;;14.75;49.24
25650;BME280;13505;45.196;5.696;2023-03-14T13:29:27;98726.94;;;14.07;49.54
25650;BME280;13505;45.196;5.696;2023-03-14T13:34:18;98732.78;;;14.13;51.93
25650;BME280;13505;45.196;5.696;2023-03-14T13:39:40;98745.00;;;13.33;56.14
25650;BME280;13505;45.196;5.696;2023-03-14T13:44:33;98742.63;;;12.86;57.68
25650;BME280;13505;45.196;5.696;2023-03-14T13:49:25;98750.09;;;13.36;62.14
25650;BME280;13505;45.196;5.696;2023-03-14T13:54:18;98755.94;;;13.56;58.34
25650;BME280;13505;45.196;5.696;2023-03-14T13:59:32;98750.84;;;13.52;57.03
25650;BME280;13505;45.196;5.696;2023-03-14T14:04:24;98771.16;;;13.10;59.78
25650;BME280;13505;45.196;5.696;2023-03-14T14:09:20;98777.19;;;13.12;59.08
25650;BME280;13505;45.196;5.696;2023-03-14T14:14:18;98765.94;;;13.08;57.74
25650;BME280;13505;45.196;5.696;2023-03-14T14:19:12;98776.28;;;12.55;58.84
25650;BME280;13505;45.196;5.696;2023-03-14T14:24:04;98780.53;;;12.87;60.68
25650;BME280;13505;45.196;5.696;2023-03-14T14:29:05;98794.81;;;12.98;59.54
25650;BME280;13505;45.196;5.696;2023-03-14T14:34:03;98795.75;;;12.68;64.40
25650;BME280;13505;45.196;5.696;2023-03-14T14:38:58;98793.28;;;12.65;68.61
25650;BME280;13505;45.196;5.696;2023-03-14T14:43:51;98782.84;;;12.33;66.83
25650;BME280;13505;45.196;5.696;2023-03-14T14:48:42;98777.94;;;12.41;68.34
25650;BME280;13505;45.196;5.696;2023-03-14T14:53:41;98768.13;;;12.58;66.95
25650;BME280;13505;45.196;5.696;2023-03-14T14:58:39;98771.84;;;12.70;66.32
25650;BME280;13505;45.196;5.696;2023-03-14T15:03:32;98781.91;;;12.63;64.41
25650;BME280;13505;45.196;5.696;2023-03-14T15:08:25;98818.22;;;12.61;64.57
25650;BME280;13505;45.196;5.696;2023-03-14T15:13:16;98857.41;;;12.54;71.61
25650;BME280;13505;45.196;5.696;2023-03-14T15:18:16;98865.22;;;12.11;72.87
25650;BME280;13505;45.196;5.696;2023-03-14T15:23:13;98845.91;;;10.61;79.81
25650;BME280;13505;45.196;5.696;2023-03-14T15:28:10;98845.69;;;10.99;80.79
25650;BME280;13505;45.196;5.696;2023-03-14T15:33:03;98851.13;;;11.46;81.31
25650;BME280;13505;45.196;5.696;2023-03-14T15:37:53;98840.16;;;11.70;82.79
25650;BME280;13505;45.196;5.696;2023-03-14T15:42:45;98837.41;;;11.87;79.58
25650;BME280;13505;45.196;5.696;2023-03-14T15:47:35;98839.25;;;12.01;77.46
25650;BME280;13505;45.196;5.696;2023-03-14T15:52:26;98842.63;;;11.89;72.31
25650;BME280;13505;45.196;5.696;2023-03-14T15:57:16;98844.91;;;11.31;70.13
25650;BME280;13505;45.196;5.696;2023-03-14T16:02:08;98853.00;;;11.28;67.34
25650;BME280;13505;45.196;5.696;2023-03-14T16:07:00;98864.03;;;11.19;68.57
25650;BME280;13505;45.196;5.696;2023-03-14T16:11:50;98872.41;;;11.27;68.64
25650;BME280;13505;45.196;5.696;2023-03-14T16:16:40;98880.69;;;10.52;67.42
25650;BME280;13505;45.196;5.696;2023-03-14T16:21:31;98874.75;;;10.82;68.59
25650;BME280;13505;45.196;5.696;2023-03-14T16:26:22;98873.84;;;10.65;66.73
25650;BME280;13505;45.196;5.696;2023-03-14T16:31:15;98880.00;;;10.99;68.06
25650;BME280;13505;45.196;5.696;2023-03-14T16:36:07;98887.56;;;10.89;65.10
25650;BME280;13505;45.196;5.696;2023-03-14T16:41:02;98883.19;;;10.88;65.60
25650;BME280;13505;45.196;5.696;2023-03-14T16:45:57;98889.97;;;10.77;61.27
25650;BME280;13505;45.196;5.696;2023-03-14T16:50:49;98879.25;;;10.80;65.33
25650;BME280;13505;45.196;5.696;2023-03-14T16:55:43;98886.47;;;10.94;65.92
25650;BME280;13505;45.196;5.696;2023-03-14T17:00:34;98897.78;;;10.96;68.42
25650;BME280;13505;45.196;5.696;2023-03-14T17:05:25;98898.97;;;10.90;71.00
25650;BME280;13505;45.196;5.696;2023-03-14T17:10:16;98912.47;;;10.84;71.99
25650;BME280;13505;45.196;5.696;2023-03-14T17:15:07;98907.28;;;10.82;71.34
25650;BME280;13505;45.196;5.696;2023-03-14T17:19:58;98910.84;;;11.33;74.88
25650;BME280;13505;45.196;5.696;2023-03-14T17:24:48;98930.63;;;11.57;75.10
25650;BME280;13505;45.196;5.696;2023-03-14T17:29:38;98927.09;;;11.58;73.85
25650;BME280;13505;45.196;5.696;2023-03-14T17:34:29;98940.03;;;11.47;71.28
25650;BME280;13505;45.196;5.696;2023-03-14T17:39:19;98940.41;;;11.39;72.16
25650;BME280;13505;45.196;5.696;2023-03-14T17:44:09;98957.84;;;11.08;71.14
25650;BME280;13505;45.196;5.696;2023-03-14T17:49:00;98965.25;;;10.84;71.95
25650;BME280;13505;45.196;5.696;2023-03-14T17:53:50;98975.13;;;10.61;74.40
25650;BME280;13505;45.196;5.696;2023-03-14T17:58:40;98986.63;;;10.42;75.25
25650;BME280;13505;45.196;5.696;2023-03-14T18:03:34;99001.91;;;10.34;76.10
25650;BME280;13505;45.196;5.696;2023-03-14T18:08:24;99009.47;;;9.84;73.79
25650;BME280;13505;45.196;5.696;2023-03-14T18:13:15;99023.50;;;9.85;69.55
25650;BME280;13505;45.196;5.696;2023-03-14T18:18:05;99020.94;;;10.02;68.81
25650;BME280;13505;45.196;5.696;2023-03-14T18:22:55;99045.25;;;10.09;68.05
25650;BME280;13505;45.196;5.696;2023-03-14T18:27:46;99037.88;;;9.77;70.33
25650;BME280;13505;45.196;5.696;2023-03-14T18:32:36;99038.38;;;9.86;72.96
25650;BME280;13505;45.196;5.696;2023-03-14T18:37:27;99041.84;;;9.86;71.43
25650;BME280;13505;45.196;5.696;2023-03-14T18:42:17;99048.66;;;10.11;76.08
25650;BME280;13505;45.196;5.696;2023-03-14T18:47:07;99054.41;;;10.19;74.90
25650;BME280;13505;45.196;5.696;2023-03-14T18:51:58;99060.75;;;10.15;75.63
25650;BME280;13505;45.196;5.696;2023-03-14T18:56:48;99066.38;;;10.08;74.59
25650;BME280;13505;45.196;5.696;2023-03-14T19:01:39;99073.41;;;10.07;74.95
25650;BME280;13505;45.196;5.696;2023-03-14T19:06:30;99083.75;;;10.12;74.37
25650;BME280;13505;45.196;5.696;2023-03-14T19:11:23;99080.59;;;10.03;74.65
25650;BME280;13505;45.196;5.696;2023-03-14T19:16:15;99086.03;;;10.00;74.10
25650;BME280;13505;45.196;5.696;2023-03-14T19:21:08;99086.97;;;9.78;74.14
25650;BME280;13505;45.196;5.696;2023-03-14T19:25:59;99083.63;;;9.54;77.73
25650;BME280;13505;45.196;5.696;2023-03-14T19:30:51;99086.84;;;9.61;77.47
25650;BME280;13505;45.196;5.696;2023-03-14T19:35:42;99094.13;;;9.56;77.63
25650;BME280;13505;45.196;5.696;2023-03-14T19:40:38;99087.88;;;9.58;78.75
25650;BME280;13505;45.196;5.696;2023-03-14T19:45:28;99088.78;;;9.57;79.01
25650;BME280;13505;45.196;5.696;2023-03-14T19:50:21;99101.47;;;9.47;81.39
25650;BME280;13505;45.196;5.696;2023-03-14T19:55:11;99111.28;;;9.44;81.15
25650;BME280;13505;45.196;5.696;2023-03-14T20:00:02;99121.22;;;9.37;82.49
25650;BME280;13505;45.196;5.696;2023-03-14T20:04:54;99125.69;;;9.35;82.54
25650;BME280;13505;45.196;5.696;2023-03-14T20:09:44;99124.19;;;9.29;83.02
25650;BME280;13505;45.196;5.696;2023-03-14T20:14:34;99126.94;;;9.26;82.93
25650;BME280;13505;45.196;5.696;2023-03-14T20:19:26;99138.44;;;9.24;83.06
25650;BME280;13505;45.196;5.696;2023-03-14T20:24:17;99143.75;;;9.22;82.38
25650;BME280;13505;45.196;5.696;2023-03-14T20:29:07;99138.22;;;9.07;82.20
25650;BME280;13505;45.196;5.696;2023-03-14T20:33:58;99144.06;;;8.92;84.67
25650;BME280;13505;45.196;5.696;2023-03-14T20:38:48;99144.03;;;8.93;82.84
25650;BME280;13505;45.196;5.696;2023-03-14T20:43:39;99143.06;;;8.96;82.72
25650;BME280;13505;45.196;5.696;2023-03-14T20:48:30;99156.63;;;8.85;82.39
25650;BME280;13505;45.196;5.696;2023-03-14T20:53:21;99162.84;;;8.60;86.26
25650;BME280;13505;45.196;5.696;2023-03-14T20:58:12;99173.78;;;8.72;87.58
25650;BME280;13505;45.196;5.696;2023-03-14T21:03:03;99176.69;;;8.88;86.25
25650;BME280;13505;45.196;5.696;2023-03-14T21:07:53;99174.63;;;8.96;84.66
25650;BME280;13505;45.196;5.696;2023-03-14T21:12:43;99171.13;;;8.96;85.08
25650;BME280;13505;45.196;5.696;2023-03-14T21:17:34;99176.34;;;8.97;83.49
25650;BME280;13505;45.196;5.696;2023-03-14T21:22:25;99176.75;;;8.86;85.01
25650;BME280;13505;45.196;5.696;2023-03-14T21:27:15;99185.50;;;8.87;85.35
25650;BME280;13505;45.196;5.696;2023-03-14T21:32:06;99200.75;;;9.01;84.05
25650;BME280;13505;45.196;5.696;2023-03-14T21:36:56;99196.22;;;9.04;84.10
25650;BME280;13505;45.196;5.696;2023-03-14T21:41:47;99196.84;;;9.11;84.05
25650;BME280;13505;45.196;5.696;2023-03-14T21:46:37;99198.69;;;9.09;83.30
25650;BME280;13505;45.196;5.696;2023-03-14T21:51:28;99197.19;;;9.02;84.66
25650;BME280;13505;45.196;5.696;2023-03-14T21:56:20;99196.22;;;9.04;84.05
25650;BME280;13505;45.196;5.696;2023-03-14T22:01:10;99198.13;;;9.01;83.93
25650;BME280;13505;45.196;5.696;2023-03-14T22:06:01;99210.41;;;9.00;84.58
25650;BME280;13505;45.196;5.696;2023-03-14T22:10:53;99202.88;;;8.91;84.84
25650;BME280;13505;45.196;5.696;2023-03-14T22:15:44;99197.56;;;8.92;85.84
25650;BME280;13505;45.196;5.696;2023-03-14T22:20:35;99207.84;;;8.99;86.14
25650;BME280;13505;45.196;5.696;2023-03-14T22:25:25;99208.69;;;8.99;85.62
25650;BME280;13505;45.196;5.696;2023-03-14T22:30:15;99217.72;;;8.92;84.61
25650;BME280;13505;45.196;5.696;2023-03-14T22:35:07;99208.03;;;8.94;84.88
25650;BME280;13505;45.196;5.696;2023-03-14T22:39:57;99221.00;;;8.99;86.07
25650;BME280;13505;45.196;5.696;2023-03-14T22:44:50;99218.31;;;9.00;85.12
25650;BME280;13505;45.196;5.696;2023-03-14T22:49:41;99221.41;;;8.88;84.13
25650;BME280;13505;45.196;5.696;2023-03-14T22:54:31;99218.78;;;8.88;81.78
25650;BME280;13505;45.196;5.696;2023-03-14T22:59:21;99222.03;;;8.94;80.49
